createdAt,value
2022-08-26T00:01:29.876Z,97841.44
2022-08-26T00:03:33.073Z,97833.81
2022-08-26T00:05:36.382Z,97829.69
2022-08-26T00:07:39.986Z,97830.06
2022-08-26T00:09:47.339Z,97822.63
2022-08-26T00:11:51.075Z,97827.94
2022-08-26T00:13:54.129Z,97832.25
2022-08-26T00:15:58.725Z,97828.13
2022-08-26T00:18:02.097Z,97832.78
2022-08-26T00:20:06.634Z,97836.63
2022-08-26T00:22:09.660Z,97832.66
2022-08-26T00:24:14.547Z,97830.19
2022-08-26T00:26:17.902Z,97837.53
2022-08-26T00:28:21.623Z,97837.88
2022-08-26T00:30:27.102Z,97837.88
2022-08-26T00:32:31.543Z,97837.25
2022-08-26T00:34:36.150Z,97832.75
2022-08-26T00:36:40.767Z,97835.59
2022-08-26T00:38:44.101Z,97831.31
2022-08-26T00:40:52.884Z,97838.59
2022-08-26T00:42:56.485Z,97834.50
2022-08-26T00:44:59.664Z,97829.38
2022-08-26T00:47:05.499Z,97831.19
2022-08-26T00:49:14.956Z,97835.03
2022-08-26T00:51:21.734Z,97822.28
2022-08-26T00:53:29.728Z,97829.41
2022-08-26T00:55:37.827Z,97820.81
2022-08-26T00:57:41.426Z,97827.28
2022-08-26T00:59:46.409Z,97825.84
2022-08-26T01:01:49.431Z,97827.00
2022-08-26T01:03:52.412Z,97830.47
2022-08-26T01:05:59.881Z,97827.19
2022-08-26T01:08:03.682Z,97827.56
2022-08-26T01:10:10.391Z,97821.44
2022-08-26T01:12:13.868Z,97828.72
2022-08-26T01:14:17.694Z,97828.91
2022-08-26T01:16:24.825Z,97829.03
2022-08-26T01:18:28.825Z,97828.59
2022-08-26T01:20:36.489Z,97830.59
2022-08-26T01:22:47.795Z,97834.25
2022-08-26T01:24:51.312Z,97830.59
2022-08-26T01:26:59.479Z,97822.81
2022-08-26T01:29:04.584Z,97823.97
2022-08-26T01:31:11.150Z,97827.47
2022-08-26T01:33:20.485Z,97831.31
2022-08-26T01:35:23.668Z,97824.34
2022-08-26T01:37:33.349Z,97823.69
2022-08-26T01:39:37.879Z,97823.88
2022-08-26T01:41:44.073Z,97823.06
2022-08-26T01:43:49.330Z,97823.06
2022-08-26T01:45:54.555Z,97828.72
2022-08-26T01:47:59.755Z,97836.50
2022-08-26T01:50:07.865Z,97830.69
2022-08-26T01:52:13.243Z,97827.22
2022-08-26T01:54:16.268Z,97826.59
2022-08-26T01:56:33.180Z,97835.56
2022-08-26T01:58:42.164Z,97831.41
2022-08-26T02:00:46.632Z,97827.94
2022-08-26T02:02:51.612Z,97828.13
2022-08-26T02:04:59.572Z,97829.94
2022-08-26T02:07:05.207Z,97827.47
2022-08-26T02:09:08.848Z,97836.59
2022-08-26T02:11:12.112Z,97825.53
2022-08-26T02:13:16.460Z,97832.81
2022-08-26T02:15:19.498Z,97834.66
2022-08-26T02:17:26.951Z,97834.81
2022-08-26T02:19:32.625Z,97836.19
2022-08-26T02:21:35.863Z,97834.88
2022-08-26T02:23:40.205Z,97841.34
2022-08-26T02:25:49.264Z,97838.22
2022-08-26T02:27:52.544Z,97833.28
2022-08-26T02:29:59.138Z,97838.91
2022-08-26T02:32:02.332Z,97839.09
2022-08-26T02:34:10.835Z,97842.56
2022-08-26T02:36:13.956Z,97839.09
2022-08-26T02:38:18.542Z,97839.91
2022-08-26T02:40:25.182Z,97840.44
2022-08-26T02:42:28.396Z,97835.19
2022-08-26T02:44:31.443Z,97833.34
2022-08-26T02:46:39.146Z,97833.06
2022-08-26T02:48:42.872Z,97830.94
2022-08-26T02:50:45.928Z,97832.09
2022-08-26T02:52:49.268Z,97833.91
2022-08-26T02:54:53.312Z,97836.09
2022-08-26T02:56:56.556Z,97828.31
2022-08-26T02:59:00.364Z,97829.66
2022-08-26T03:01:04.865Z,97825.84
2022-08-26T03:03:10.031Z,97826.19
2022-08-26T03:05:13.477Z,97823.53
2022-08-26T03:07:16.401Z,97833.50
2022-08-26T03:09:19.813Z,97833.50
2022-08-26T03:11:23.574Z,97831.00
2022-08-26T03:13:27.597Z,97836.31
2022-08-26T03:15:30.569Z,97835.50
2022-08-26T03:17:33.882Z,97833.66
2022-08-26T03:19:40.301Z,97830.38
2022-08-26T03:21:44.327Z,97824.25
2022-08-26T03:23:50.494Z,97824.06
2022-08-26T03:25:54.220Z,97826.34
2022-08-26T03:27:57.147Z,97829.00
2022-08-26T03:30:20.406Z,97829.19
2022-08-26T03:32:23.446Z,97830.84
2022-08-26T03:34:29.929Z,97826.91
2022-08-26T03:36:35.074Z,97822.28
2022-08-26T03:38:38.129Z,97830.06
2022-08-26T03:40:43.425Z,97824.28
2022-08-26T03:42:46.803Z,97815.19
2022-08-26T03:44:50.016Z,97820.66
2022-08-26T03:46:53.672Z,97820.81
2022-08-26T03:48:57.195Z,97819.19
2022-08-26T03:51:00.183Z,97821.31
2022-08-26T03:53:12.678Z,97819.00
2022-08-26T03:55:17.724Z,97814.06
2022-08-26T03:57:20.743Z,97817.72
2022-08-26T03:59:25.192Z,97816.53
2022-08-26T04:01:29.234Z,97818.38
2022-08-26T04:03:51.450Z,97819.00
2022-08-26T04:05:54.377Z,97826.44
2022-08-26T04:07:57.334Z,97821.16
2022-08-26T04:10:02.865Z,97817.03
2022-08-26T04:12:06.277Z,97814.22
2022-08-26T04:14:10.772Z,97824.16
2022-08-26T04:16:13.928Z,97820.69
2022-08-26T04:18:17.283Z,97824.31
2022-08-26T04:20:20.923Z,97822.69
2022-08-26T04:22:24.886Z,97819.34
2022-08-26T04:24:28.756Z,97825.31
2022-08-26T04:26:37.039Z,97819.34
2022-08-26T04:28:42.551Z,97814.06
2022-08-26T04:30:45.625Z,97817.72
2022-08-26T04:32:48.736Z,97822.00
2022-08-26T04:34:51.772Z,97816.72
2022-08-26T04:36:55.973Z,97819.88
2022-08-26T04:39:01.764Z,97825.00
2022-08-26T04:41:05.956Z,97821.50
2022-08-26T04:43:20.072Z,97822.34
2022-08-26T04:45:23.268Z,97821.50
2022-08-26T04:47:29.200Z,97825.63
2022-08-26T04:49:35.756Z,97822.00
2022-08-26T04:51:39.053Z,97828.94
2022-08-26T04:53:42.012Z,97833.88
2022-08-26T04:55:45.183Z,97836.19
2022-08-26T04:57:51.276Z,97841.84
2022-08-26T04:59:55.638Z,97836.84
2022-08-26T05:01:59.471Z,97833.69
2022-08-26T05:04:03.507Z,97841.13
2022-08-26T05:06:12.262Z,97838.31
2022-08-26T05:08:15.888Z,97841.44
2022-08-26T05:10:20.051Z,97835.63
2022-08-26T05:12:23.282Z,97847.72
2022-08-26T05:14:26.594Z,97840.06
2022-08-26T05:16:31.260Z,97838.88
2022-08-26T05:18:35.821Z,97844.28
2022-08-26T05:20:40.676Z,97842.56
2022-08-26T05:22:43.956Z,97841.84
2022-08-26T05:24:47.382Z,97844.72
2022-08-26T05:26:50.365Z,97846.97
2022-08-26T05:28:55.277Z,97848.75
2022-08-26T05:30:58.383Z,97851.38
2022-08-26T05:33:03.552Z,97856.28
2022-08-26T05:35:08.716Z,97857.97
2022-08-26T05:37:13.645Z,97857.69
2022-08-26T05:39:17.370Z,97857.06
2022-08-26T05:41:24.743Z,97855.09
2022-08-26T05:43:27.757Z,97858.88
2022-08-26T05:45:32.156Z,97865.31
2022-08-26T05:47:35.205Z,97867.19
2022-08-26T05:49:51.291Z,97861.50
2022-08-26T05:51:54.875Z,97866.06
2022-08-26T05:53:57.812Z,97874.22
2022-08-26T05:56:01.281Z,97876.19
2022-08-26T05:58:04.274Z,97875.97
2022-08-26T06:00:09.681Z,97872.03
2022-08-26T06:02:15.252Z,97875.91
2022-08-26T06:04:18.259Z,97867.53
2022-08-26T06:06:27.307Z,97869.59
2022-08-26T06:08:32.082Z,97880.72
2022-08-26T06:10:35.157Z,97883.94
2022-08-26T06:12:38.438Z,97888.41
2022-08-26T06:14:41.494Z,97883.56
2022-08-26T06:16:45.124Z,97890.56
2022-08-26T06:18:49.027Z,97878.81
2022-08-26T06:20:57.745Z,97884.09
2022-08-26T06:23:19.988Z,97890.00
2022-08-26T06:25:39.670Z,97882.78
2022-08-26T06:27:42.700Z,97892.00
2022-08-26T06:29:47.096Z,97889.34
2022-08-26T06:31:50.238Z,97891.81
2022-08-26T06:33:55.109Z,97889.16
2022-08-26T06:35:58.809Z,97889.34
2022-08-26T06:38:03.320Z,97890.78
2022-08-26T06:40:07.516Z,97885.88
2022-08-26T06:42:11.763Z,97885.28
2022-08-26T06:44:16.025Z,97895.47
2022-08-26T06:46:21.516Z,97888.97
2022-08-26T06:48:24.825Z,97892.72
2022-08-26T06:50:29.868Z,97894.00
2022-08-26T06:52:32.994Z,97895.34
2022-08-26T06:54:43.016Z,97895.59
2022-08-26T06:56:46.009Z,97893.84
2022-08-26T06:58:51.737Z,97898.84
2022-08-26T07:00:54.798Z,97897.22
2022-08-26T07:02:57.860Z,97891.72
2022-08-26T07:05:00.909Z,97903.47
2022-08-26T07:07:03.903Z,97899.00
2022-08-26T07:09:09.957Z,97900.03
2022-08-26T07:11:14.756Z,97892.84
2022-08-26T07:13:18.198Z,97900.06
2022-08-26T07:15:35.733Z,97896.94
2022-08-26T07:17:38.989Z,97907.22
2022-08-26T07:19:43.477Z,97908.13
2022-08-26T07:21:46.469Z,97910.91
2022-08-26T07:23:54.623Z,97910.84
2022-08-26T07:26:01.136Z,97911.53
2022-08-26T07:28:05.642Z,97907.31
2022-08-26T07:30:11.355Z,97904.91
2022-08-26T07:32:20.681Z,97908.38
2022-08-26T07:34:26.230Z,97912.56
2022-08-26T07:36:30.224Z,97906.03
2022-08-26T07:38:33.993Z,97914.09
2022-08-26T07:40:37.408Z,97910.66
2022-08-26T07:42:40.777Z,97910.06
2022-08-26T07:44:46.176Z,97911.13
2022-08-26T07:46:52.393Z,97912.88
2022-08-26T07:48:56.560Z,97910.56
2022-08-26T07:50:59.899Z,97913.00
2022-08-26T07:53:03.444Z,97909.19
2022-08-26T07:55:09.530Z,97913.53
2022-08-26T07:57:12.605Z,97907.97
2022-08-26T07:59:16.704Z,97907.75
2022-08-26T08:01:21.434Z,97902.59
2022-08-26T08:03:24.596Z,97904.13
2022-08-26T08:05:33.490Z,97909.25
2022-08-26T08:07:45.062Z,97906.47
2022-08-26T08:09:50.025Z,97908.09
2022-08-26T08:11:53.852Z,97897.91
2022-08-26T08:13:57.124Z,97903.06
2022-08-26T08:16:00.570Z,97898.56
2022-08-26T08:18:06.479Z,97905.44
2022-08-26T08:20:19.056Z,97898.19
2022-08-26T08:22:23.664Z,97899.44
2022-08-26T08:24:27.420Z,97897.50
2022-08-26T08:26:30.473Z,97891.88
2022-08-26T08:28:34.212Z,97899.09
2022-08-26T08:30:39.648Z,97890.28
2022-08-26T08:32:44.389Z,97882.94
2022-08-26T08:34:49.160Z,97888.88
2022-08-26T08:36:53.498Z,97888.88
2022-08-26T08:38:56.778Z,97893.16
2022-08-26T08:41:01.579Z,97883.47
2022-08-26T08:43:11.217Z,97889.88
2022-08-26T08:45:16.977Z,97879.22
2022-08-26T08:47:31.731Z,97880.03
2022-08-26T08:49:35.721Z,97883.00
2022-08-26T08:51:45.764Z,97884.16
2022-08-26T08:53:51.182Z,97886.75
2022-08-26T08:56:08.546Z,97873.50
2022-08-26T08:58:16.251Z,97874.78
2022-08-26T09:00:30.510Z,97864.41
2022-08-26T09:02:37.131Z,97866.78
2022-08-26T09:05:02.878Z,97862.50
2022-08-26T09:07:10.467Z,97858.91
2022-08-26T09:09:20.466Z,97856.72
2022-08-26T09:11:23.647Z,97850.91
2022-08-26T09:13:27.515Z,97855.16
2022-08-26T09:15:37.865Z,97854.84
2022-08-26T09:17:47.942Z,97862.63
2022-08-26T09:19:54.259Z,97862.06
2022-08-26T09:21:57.608Z,97847.00
2022-08-26T09:24:02.107Z,97847.16
2022-08-26T09:26:17.241Z,97840.25
2022-08-26T09:28:22.187Z,97843.66
2022-08-26T09:30:27.504Z,97837.53
2022-08-26T09:32:32.061Z,97827.72
2022-08-26T09:34:36.159Z,97830.06
2022-08-26T09:36:41.332Z,97827.84
2022-08-26T09:38:44.873Z,97823.16
2022-08-26T09:40:59.614Z,97827.97
2022-08-26T09:43:22.506Z,97819.06
2022-08-26T09:45:29.919Z,97816.38
2022-08-26T09:47:35.468Z,97806.06
2022-08-26T09:49:39.564Z,97811.22
2022-08-26T09:51:44.260Z,97796.66
2022-08-26T09:53:55.202Z,97807.00
2022-08-26T09:56:17.291Z,97809.19
2022-08-26T09:58:33.881Z,97810.44
2022-08-26T10:00:40.165Z,97811.22
2022-08-26T10:02:47.765Z,97811.63
2022-08-26T10:04:54.018Z,97800.28
2022-08-26T10:06:59.626Z,97797.41
2022-08-26T10:09:08.960Z,97802.13
2022-08-26T10:11:19.470Z,97806.25
2022-08-26T10:13:29.519Z,97803.38
2022-08-26T10:15:41.050Z,97805.00
2022-08-26T10:17:56.802Z,97809.34
2022-08-26T10:20:03.658Z,97813.81
2022-08-26T10:22:14.651Z,97813.66
2022-08-26T10:24:22.767Z,97808.84
2022-08-26T10:26:32.439Z,97800.13
2022-08-26T10:28:41.777Z,97811.13
2022-08-26T10:30:51.479Z,97806.06
2022-08-26T10:32:58.020Z,97808.91
2022-08-26T10:35:01.056Z,97812.44
2022-08-26T10:37:16.213Z,97798.84
2022-08-26T10:39:23.894Z,97785.91
2022-08-26T10:41:33.116Z,97785.59
2022-08-26T10:43:40.932Z,97780.66
2022-08-26T10:45:48.842Z,97790.16
2022-08-26T10:47:58.349Z,97799.78
2022-08-26T10:50:03.373Z,97795.13
2022-08-26T10:52:16.438Z,97796.91
2022-08-26T10:54:25.285Z,97789.81
2022-08-26T10:56:41.400Z,97784.81
2022-08-26T10:58:55.068Z,97785.38
2022-08-26T11:01:22.836Z,97794.41
2022-08-26T11:03:32.957Z,97780.25
2022-08-26T11:05:35.963Z,97788.41
2022-08-26T11:07:41.785Z,97788.03
2022-08-26T11:09:47.197Z,97785.94
2022-08-26T11:11:52.033Z,97787.94
2022-08-26T11:14:05.016Z,97783.22
2022-08-26T11:16:11.049Z,97784.59
2022-08-26T11:18:55.803Z,97784.53
2022-08-26T11:21:00.153Z,97780.00
2022-08-26T11:23:38.696Z,97777.47
2022-08-26T11:26:35.373Z,97762.75
2022-08-26T11:28:39.872Z,97757.38
2022-08-26T11:30:57.017Z,97750.22
2022-08-26T11:33:01.235Z,97753.16
2022-08-26T11:35:06.029Z,97750.81
2022-08-26T11:37:15.245Z,97741.09
2022-08-26T11:39:21.804Z,97740.28
2022-08-26T11:41:29.225Z,97736.91
2022-08-26T11:43:33.377Z,97733.38
2022-08-26T11:45:38.394Z,97732.63
2022-08-26T11:47:42.050Z,97750.78
2022-08-26T11:49:46.399Z,97759.84
2022-08-26T11:51:49.908Z,97773.97
2022-08-26T11:54:09.903Z,97781.19
2022-08-26T11:56:18.660Z,97776.78
2022-08-26T11:58:25.754Z,97757.81
2022-08-26T12:00:33.324Z,97754.47
2022-08-26T12:02:37.103Z,97756.78
2022-08-26T12:04:42.316Z,97755.81
2022-08-26T12:06:48.034Z,97760.78
2022-08-26T12:08:51.284Z,97767.88
2022-08-26T12:11:05.228Z,97764.78
2022-08-26T12:13:21.094Z,97766.41
2022-08-26T12:15:24.422Z,97757.47
2022-08-26T12:17:28.697Z,97762.25
2022-08-26T12:19:33.732Z,97755.53
2022-08-26T12:21:37.316Z,97763.38
2022-08-26T12:23:46.823Z,97768.94
2022-08-26T12:25:51.478Z,97762.31
2022-08-26T12:28:04.810Z,97754.66
2022-08-26T12:30:12.243Z,97753.25
2022-08-26T12:32:19.356Z,97743.31
2022-08-26T12:34:22.861Z,97735.81
2022-08-26T12:36:31.301Z,97730.94
2022-08-26T12:38:36.840Z,97721.31
2022-08-26T12:40:43.183Z,97717.56
2022-08-26T12:42:46.747Z,97713.00
2022-08-26T12:44:59.345Z,97711.00
2022-08-26T12:47:04.677Z,97715.91
2022-08-26T12:49:07.684Z,97718.69
2022-08-26T12:51:21.298Z,97701.00
2022-08-26T12:53:26.383Z,97715.50
2022-08-26T12:55:37.977Z,97711.84
2022-08-26T12:57:40.940Z,97705.47
2022-08-26T12:59:44.125Z,97697.53
2022-08-26T13:01:49.517Z,97697.13
2022-08-26T13:03:52.698Z,97696.34
2022-08-26T13:06:09.545Z,97697.06
2022-08-26T13:08:26.911Z,97705.94
2022-08-26T13:10:35.525Z,97709.69
2022-08-26T13:12:38.526Z,97700.56
2022-08-26T13:14:41.524Z,97700.56
2022-08-26T13:16:45.960Z,97696.09
2022-08-26T13:18:51.555Z,97690.53
2022-08-26T13:20:54.634Z,97690.78
2022-08-26T13:22:59.060Z,97690.09
2022-08-26T13:25:02.444Z,97679.72
2022-08-26T13:27:07.208Z,97682.88
2022-08-26T13:29:11.230Z,97686.63
2022-08-26T13:31:15.109Z,97680.69
2022-08-26T13:33:21.383Z,97671.56
2022-08-26T13:35:25.780Z,97665.00
2022-08-26T13:37:34.259Z,97669.44
2022-08-26T13:39:39.400Z,97668.66
2022-08-26T13:41:43.298Z,97664.06
2022-08-26T13:43:46.293Z,97665.13
2022-08-26T13:45:49.443Z,97666.75
2022-08-26T13:47:52.500Z,97661.03
2022-08-26T13:49:55.903Z,97665.25
2022-08-26T13:52:00.304Z,97663.03
2022-08-26T13:54:03.335Z,97667.63
2022-08-26T13:56:10.485Z,97663.16
2022-08-26T13:58:14.578Z,97662.56
2022-08-26T14:00:18.613Z,97659.78
2022-08-26T14:02:22.429Z,97653.25
2022-08-26T14:04:26.974Z,97658.63
2022-08-26T14:06:30.588Z,97651.13
2022-08-26T14:08:35.131Z,97655.72
2022-08-26T14:10:38.338Z,97654.38
2022-08-26T14:12:41.374Z,97648.53
2022-08-26T14:14:44.361Z,97656.84
2022-08-26T14:16:58.895Z,97648.19
2022-08-26T14:19:03.687Z,97651.47
2022-08-26T14:21:07.677Z,97647.50
2022-08-26T14:23:13.907Z,97642.81
2022-08-26T14:25:25.600Z,97642.47
2022-08-26T14:27:29.299Z,97645.66
2022-08-26T14:29:32.307Z,97638.84
2022-08-26T14:31:35.727Z,97637.22
2022-08-26T14:33:39.130Z,97639.44
2022-08-26T14:35:48.012Z,97632.19
2022-08-26T14:37:53.530Z,97634.16
2022-08-26T14:39:56.808Z,97631.81
2022-08-26T14:42:01.303Z,97625.97
2022-08-26T14:44:07.639Z,97630.03
2022-08-26T14:46:10.697Z,97622.78
2022-08-26T14:48:14.097Z,97620.69
2022-08-26T14:50:20.864Z,97623.94
2022-08-26T14:52:23.951Z,97622.66
2022-08-26T14:54:26.370Z,97625.09
2022-08-26T14:56:31.402Z,97628.38
2022-08-26T14:58:35.794Z,97626.03
2022-08-26T15:00:39.220Z,97631.19
2022-08-26T15:02:42.323Z,97639.38
2022-08-26T15:04:45.540Z,97631.84
2022-08-26T15:06:48.930Z,97640.06
2022-08-26T15:08:51.963Z,97643.69
2022-08-26T15:10:54.992Z,97641.59
2022-08-26T15:12:58.012Z,97644.59
2022-08-26T15:15:04.481Z,97641.44
2022-08-26T15:17:07.498Z,97646.81
2022-08-26T15:19:10.727Z,97642.25
2022-08-26T15:21:13.800Z,97635.44
2022-08-26T15:23:17.602Z,97627.53
2022-08-26T15:25:20.929Z,97622.81
2022-08-26T15:27:23.972Z,97628.91
2022-08-26T15:29:27.100Z,97624.84
2022-08-26T15:31:32.934Z,97631.75
2022-08-26T15:33:36.729Z,97619.59
2022-08-26T15:35:40.404Z,97617.97
2022-08-26T15:37:46.068Z,97621.13
2022-08-26T15:39:49.261Z,97618.06
2022-08-26T15:41:52.330Z,97618.56
2022-08-26T15:43:55.303Z,97620.34
2022-08-26T15:45:58.570Z,97615.66
2022-08-26T15:48:03.431Z,97621.53
2022-08-26T15:50:07.645Z,97612.75
2022-08-26T15:52:10.655Z,97614.53
2022-08-26T15:54:13.934Z,97610.06
2022-08-26T15:56:17.176Z,97608.09
2022-08-26T15:58:21.219Z,97616.00
2022-08-26T16:00:24.234Z,97612.75
2022-08-26T16:02:31.744Z,97607.03
2022-08-26T16:04:36.668Z,97607.75
2022-08-26T16:06:40.582Z,97613.59
2022-08-26T16:08:46.207Z,97614.28
2022-08-26T16:10:50.804Z,97616.88
2022-08-26T16:12:53.866Z,97620.25
2022-08-26T16:14:57.356Z,97623.88
2022-08-26T16:17:00.373Z,97627.50
2022-08-26T16:19:07.393Z,97621.38
2022-08-26T16:21:16.006Z,97632.00
2022-08-26T16:23:19.918Z,97634.81
2022-08-26T16:25:23.396Z,97639.22
2022-08-26T16:27:26.556Z,97635.47
2022-08-26T16:29:31.823Z,97633.56
2022-08-26T16:31:37.182Z,97650.31
2022-08-26T16:33:40.624Z,97656.00
2022-08-26T16:35:43.987Z,97669.53
2022-08-26T16:37:48.360Z,97685.91
2022-08-26T16:39:51.432Z,97690.50
2022-08-26T16:41:54.468Z,97692.28
2022-08-26T16:43:57.725Z,97693.53
2022-08-26T16:46:00.879Z,97699.81
2022-08-26T16:48:05.129Z,97681.50
2022-08-26T16:50:09.504Z,97682.63
2022-08-26T16:52:12.910Z,97681.97
2022-08-26T16:54:18.575Z,97694.88
2022-08-26T16:56:33.498Z,97689.19
2022-08-26T16:58:37.302Z,97709.78
2022-08-26T17:00:40.290Z,97715.78
2022-08-26T17:02:43.439Z,97723.78
2022-08-26T17:04:47.215Z,97726.69
2022-08-26T17:06:53.545Z,97726.25
2022-08-26T17:08:56.531Z,97732.81
2022-08-26T17:11:01.457Z,97736.88
2022-08-26T17:13:04.646Z,97740.53
2022-08-26T17:15:09.447Z,97753.44
2022-08-26T17:17:12.464Z,97752.34
2022-08-26T17:19:15.498Z,97763.59
2022-08-26T17:21:18.499Z,97758.22
2022-08-26T17:23:22.104Z,97757.81
2022-08-26T17:25:27.372Z,97765.75
2022-08-26T17:27:31.752Z,97765.50
2022-08-26T17:29:35.060Z,97759.16
2022-08-26T17:31:38.228Z,97760.34
2022-08-26T17:33:41.551Z,97771.22
2022-08-26T17:35:44.616Z,97767.94
2022-08-26T17:37:47.778Z,97758.28
2022-08-26T17:39:50.844Z,97763.59
2022-08-26T17:41:53.890Z,97756.66
2022-08-26T17:43:58.283Z,97750.69
2022-08-26T17:46:07.266Z,97748.44
2022-08-26T17:48:11.683Z,97750.84
2022-08-26T17:50:16.995Z,97754.47
2022-08-26T17:52:20.101Z,97760.59
2022-08-26T17:54:23.050Z,97780.47
2022-08-26T17:56:27.996Z,97787.78
2022-08-26T17:58:30.956Z,97806.63
2022-08-26T18:00:39.107Z,97809.25
2022-08-26T18:02:42.208Z,97807.16
2022-08-26T18:04:45.457Z,97805.91
2022-08-26T18:06:48.441Z,97802.22
2022-08-26T18:08:51.612Z,97804.06
2022-08-26T18:10:56.632Z,97791.56
2022-08-26T18:12:59.716Z,97791.56
2022-08-26T18:15:03.258Z,97789.91
2022-08-26T18:17:07.947Z,97802.59
2022-08-26T18:19:11.751Z,97793.63
2022-08-26T18:21:17.663Z,97788.28
2022-08-26T18:23:20.706Z,97788.28
2022-08-26T18:25:23.830Z,97792.94
2022-08-26T18:27:26.890Z,97790.66
2022-08-26T18:29:30.000Z,97791.41
2022-08-26T18:31:33.743Z,97798.78
2022-08-26T18:33:38.903Z,97805.78
2022-08-26T18:35:42.792Z,97820.91
2022-08-26T18:37:46.005Z,97823.31
2022-08-26T18:39:49.018Z,97821.03
2022-08-26T18:41:53.240Z,97827.66
2022-08-26T18:43:57.411Z,97827.66
2022-08-26T18:46:04.909Z,97826.81
2022-08-26T18:48:08.090Z,97827.84
2022-08-26T18:50:12.756Z,97837.84
2022-08-26T18:52:16.294Z,97835.56
2022-08-26T18:56:23.803Z,97852.13
2022-08-26T18:58:27.383Z,97839.63
2022-08-26T19:00:31.647Z,97857.22
2022-08-26T19:02:35.280Z,97852.56
2022-08-26T19:04:39.280Z,97852.75
2022-08-26T19:06:44.430Z,97864.22
2022-08-26T19:08:49.860Z,97876.09
2022-08-26T19:10:53.112Z,97869.13
2022-08-26T19:13:00.589Z,97872.59
2022-08-26T19:15:06.326Z,97866.00
2022-08-26T19:17:09.802Z,97866.38
2022-08-26T19:19:13.456Z,97870.25
2022-08-26T19:21:16.498Z,97869.16
2022-08-26T19:23:31.484Z,97868.53
2022-08-26T19:25:41.956Z,97863.38
2022-08-26T19:27:44.960Z,97866.97
2022-08-26T19:29:48.048Z,97867.97
2022-08-26T19:31:51.074Z,97856.09
2022-08-26T19:33:54.200Z,97861.59
2022-08-26T19:35:57.222Z,97859.38
2022-08-26T19:38:00.449Z,97851.19
2022-08-26T19:40:06.434Z,97848.91
2022-08-26T19:42:09.500Z,97854.59
2022-08-26T19:44:34.584Z,97847.00
2022-08-26T19:48:46.819Z,97849.03
2022-08-26T19:50:49.842Z,97843.91
2022-08-26T19:52:52.847Z,97842.91
2022-08-26T19:54:55.858Z,97846.19
2022-08-26T19:57:00.447Z,97838.19
2022-08-26T19:59:03.696Z,97837.16
2022-08-26T20:01:07.568Z,97838.38
2022-08-26T20:03:14.832Z,97844.91
2022-08-26T20:05:20.911Z,97840.09
2022-08-26T20:07:24.430Z,97841.31
2022-08-26T20:09:27.466Z,97841.50
2022-08-26T20:11:31.106Z,97850.69
2022-08-26T20:13:35.826Z,97858.84
2022-08-26T20:15:38.878Z,97865.16
2022-08-26T20:17:42.400Z,97863.72
2022-08-26T20:20:03.154Z,97871.03
2022-08-26T20:22:06.331Z,97879.41
2022-08-26T20:24:12.340Z,97883.09
2022-08-26T20:26:15.350Z,97885.09
2022-08-26T20:28:21.339Z,97884.44
2022-08-26T20:30:25.909Z,97888.78
2022-08-26T20:32:32.637Z,97900.59
2022-08-26T20:34:39.617Z,97891.81
2022-08-26T20:36:43.284Z,97897.50
2022-08-26T20:38:46.354Z,97905.84
2022-08-26T20:40:49.548Z,97907.66
2022-08-26T20:42:52.583Z,97904.53
2022-08-26T20:44:55.650Z,97899.59
2022-08-26T20:47:00.152Z,97904.28
2022-08-26T20:49:03.695Z,97894.00
2022-08-26T20:51:08.991Z,97890.88
2022-08-26T20:53:12.026Z,97878.97
2022-08-26T20:55:15.073Z,97878.69
2022-08-26T20:57:18.352Z,97875.56
2022-08-26T20:59:22.325Z,97874.56
2022-08-26T21:01:28.070Z,97880.88
2022-08-26T21:03:33.038Z,97880.88
2022-08-26T21:05:36.830Z,97881.72
2022-08-26T21:07:40.103Z,97880.06
2022-08-26T21:09:43.560Z,97888.03
2022-08-26T21:11:46.686Z,97891.50
2022-08-26T21:14:04.325Z,97894.34
2022-08-26T21:16:08.187Z,97906.81
2022-08-26T21:18:11.411Z,97902.50
2022-08-26T21:20:16.134Z,97901.22
2022-08-26T21:22:19.201Z,97902.59
2022-08-26T21:24:22.548Z,97898.94
2022-08-26T21:26:25.712Z,97902.13
2022-08-26T21:28:28.725Z,97909.63
2022-08-26T21:30:31.845Z,97913.28
2022-08-26T21:32:34.888Z,97915.94
2022-08-26T21:34:37.907Z,97915.28
2022-08-26T21:36:44.194Z,97919.13
2022-08-26T21:38:47.201Z,97923.63
2022-08-26T21:40:58.611Z,97917.47
2022-08-26T21:43:01.609Z,97908.22
2022-08-26T21:45:06.047Z,97919.03
2022-08-26T21:47:09.108Z,97917.53
2022-08-26T21:49:15.609Z,97922.22
2022-08-26T21:51:20.610Z,97924.03
2022-08-26T21:53:25.013Z,97918.72
2022-08-26T21:55:28.076Z,97924.88
2022-08-26T21:57:31.132Z,97922.41
2022-08-26T21:59:34.430Z,97922.75
2022-08-26T22:01:37.899Z,97925.94
2022-08-26T22:03:47.657Z,97919.50
2022-08-26T22:05:51.217Z,97920.88
2022-08-26T22:07:54.351Z,97926.38
2022-08-26T22:09:58.959Z,97915.94
2022-08-26T22:12:02.077Z,97916.94
2022-08-26T22:14:05.473Z,97916.75
2022-08-26T22:16:09.509Z,97922.88
2022-08-26T22:18:14.456Z,97926.19
2022-08-26T22:20:18.142Z,97932.34
2022-08-26T22:22:21.251Z,97927.38
2022-08-26T22:24:25.930Z,97921.25
2022-08-26T22:26:32.552Z,97929.22
2022-08-26T22:28:36.100Z,97914.09
2022-08-26T22:30:39.750Z,97919.13
2022-08-26T22:32:43.868Z,97919.47
2022-08-26T22:34:48.534Z,97923.47
2022-08-26T22:36:51.717Z,97923.47
2022-08-26T22:38:55.417Z,97924.47
2022-08-26T22:41:00.221Z,97922.00
2022-08-26T22:43:05.659Z,97929.97
2022-08-26T22:45:10.627Z,97935.44
2022-08-26T22:47:13.677Z,97927.47
2022-08-26T22:49:17.305Z,97924.66
2022-08-26T22:51:20.673Z,97925.16
2022-08-26T22:53:23.983Z,97928.78
2022-08-26T22:55:26.943Z,97931.81
2022-08-26T22:57:29.974Z,97929.16
2022-08-26T22:59:34.414Z,97939.78
2022-08-26T23:01:37.925Z,97942.59
2022-08-26T23:03:41.260Z,97938.94
2022-08-26T23:05:45.384Z,97940.13
2022-08-26T23:07:48.908Z,97941.97
2022-08-26T23:09:51.940Z,97945.59
2022-08-26T23:11:55.918Z,97943.31
2022-08-26T23:13:58.942Z,97936.16
2022-08-26T23:16:10.091Z,97944.78
2022-08-26T23:18:14.200Z,97933.31
2022-08-26T23:20:19.399Z,97935.16
2022-08-26T23:22:22.412Z,97929.84
2022-08-26T23:24:25.400Z,97935.81
2022-08-26T23:26:28.417Z,97931.34
2022-08-26T23:28:31.820Z,97932.97
2022-08-26T23:30:35.418Z,97931.16
2022-08-26T23:32:40.113Z,97934.47
2022-08-26T23:34:58.655Z,97929.59
2022-08-26T23:37:02.153Z,97927.81
2022-08-26T23:39:09.165Z,97927.81
2022-08-26T23:41:12.130Z,97926.94
2022-08-26T23:43:16.365Z,97921.66
2022-08-26T23:45:19.944Z,97922.50
2022-08-26T23:47:23.039Z,97924.13
2022-08-26T23:49:27.556Z,97926.59
2022-08-26T23:51:48.277Z,97923.94
2022-08-26T23:53:51.573Z,97927.63
2022-08-26T23:55:54.661Z,97924.66
2022-08-26T23:57:57.591Z,97928.50
